Bolinger, Alabama
Current Conditions -  °F | °C
As of 11:58 PM on Friday 19 Dec 2014 (Local Time) from KMEI Reporting Station
Overcast Overcast  
Wind Chill: 38°   Ceiling: 600
Heat Index: 43°   Visibility: 10mi
Dew Point: 41°   Wind: 9mph
Humidity: 93%   Direction: 360°N
Pressure: 30.17"   Gusts: NA
Location:  31.7615°N, 88.3039°W
Report Text: KMEI 200558Z AUTO 36008KT 10SM OVC006 06/05 A3017 RMK AO2 PK WND 33027/0513 RAB30E56 SLP218 P0000 60030 T00610050 10067 20061 401000061 53007
Loading
Personal Weather Stations






























Interactive Weather Map New forecast layout! Learn more

10-Day Weather Forecast

Advertisements
Track Severe Weather on mobile